Time;durP1;ratioP1;P1;durP2;ratioP2;P2;SDS_P1;SDS_P2;PMS_P1;PMS_P2;Temp;Humidity;BMP_temperature;BMP_pressure;BME280_temperature;BME280_humidity;BME280_pressure;Samples;Min_cycle;Max_cycle;Signal;HPM_P1;HPM_P2
2022/06/11 00:01:48;;;;;;;4.37;3.97;;;14.60;99.90;;;;;;4929441;28;20446;-85
2022/06/11 00:04:21;;;;;;;8.40;5.60;;;14.60;99.90;;;;;;4941852;28;20486;-86
2022/06/11 00:06:51;;;;;;;6.77;5.30;;;14.60;99.90;;;;;;4915857;28;20453;-85
2022/06/11 00:09:19;;;;;;;4.70;4.23;;;14.60;99.90;;;;;;4940111;28;20450;-85
2022/06/11 00:11:45;;;;;;;8.53;5.90;;;14.60;99.90;;;;;;4920708;28;20446;-85
2022/06/11 00:14:12;;;;;;;5.90;5.40;;;14.70;99.90;;;;;;4917841;28;20621;-85
2022/06/11 00:16:39;;;;;;;5.23;4.73;;;14.70;99.90;;;;;;4931201;28;20458;-86
2022/06/11 00:19:06;;;;;;;5.10;4.70;;;14.60;99.90;;;;;;4924529;28;20578;-85
2022/06/11 00:21:35;;;;;;;5.87;5.27;;;14.60;99.90;;;;;;4940519;28;20972;-86
2022/06/11 00:24:00;;;;;;;5.40;4.90;;;14.50;99.90;;;;;;4932808;28;20654;-86
2022/06/11 00:26:27;;;;;;;5.33;4.83;;;14.40;99.90;;;;;;4912537;28;21210;-86
2022/06/11 00:28:52;;;;;;;5.23;4.73;;;14.40;99.90;;;;;;4926862;28;20867;-86
2022/06/11 00:31:18;;;;;;;5.83;5.13;;;14.30;99.90;;;;;;4929194;28;20449;-86
2022/06/11 00:33:44;;;;;;;5.33;4.63;;;14.40;99.90;;;;;;4934678;28;20195;-86
2022/06/11 00:36:11;;;;;;;5.30;4.80;;;14.40;99.90;;;;;;4936356;28;22350;-86
2022/06/11 00:38:38;;;;;;;5.03;4.60;;;14.30;99.90;;;;;;4935014;28;20218;-86
2022/06/11 00:41:05;;;;;;;4.37;4.07;;;14.40;99.90;;;;;;4937091;28;20808;-86
2022/06/11 00:43:31;;;;;;;4.03;3.73;;;14.40;99.90;;;;;;4936316;28;21079;-86
2022/06/11 00:46:18;;;;;;;4.50;4.10;;;14.40;99.90;;;;;;4929138;28;20442;-86
2022/06/11 00:48:44;;;;;;;4.90;4.50;;;14.40;99.90;;;;;;4939057;28;20458;-86
2022/06/11 00:51:17;;;;;;;5.23;4.40;;;14.50;99.90;;;;;;4925337;28;20900;-86
2022/06/11 00:53:54;;;;;;;4.90;4.43;;;14.60;99.90;;;;;;4929967;28;20213;-86
2022/06/11 00:56:28;;;;;;;4.73;4.40;;;14.60;99.90;;;;;;4924401;28;21004;-85
2022/06/11 00:58:56;;;;;;;4.93;4.43;;;14.50;99.90;;;;;;4926725;28;20461;-86
2022/06/11 01:01:24;;;;;;;4.83;4.43;;;14.50;99.90;;;;;;4924641;28;20945;-86
2022/06/11 01:03:53;;;;;;;8.23;4.90;;;14.40;99.90;;;;;;4925550;28;20848;-86
2022/06/11 01:06:35;;;;;;;5.30;4.50;;;14.30;99.90;;;;;;4924820;28;20531;-85
2022/06/11 01:09:15;;;;;;;5.30;4.53;;;14.30;99.90;;;;;;4921810;28;20550;-86
2022/06/11 01:11:53;;;;;;;5.17;4.40;;;14.20;99.90;;;;;;4925918;28;20734;-85
2022/06/11 01:14:32;;;;;;;4.63;4.33;;;14.30;99.90;;;;;;4940985;28;20446;-85
2022/06/11 01:17:17;;;;;;;6.00;4.67;;;14.20;99.90;;;;;;4929139;28;20454;-85
2022/06/11 01:20:14;;;;;;;5.20;4.80;;;14.10;99.90;;;;;;4920716;28;20463;-86
2022/06/11 01:23:05;;;;;;;5.57;5.07;;;13.90;99.90;;;;;;4924364;28;20873;-85
2022/06/11 01:25:47;;;;;;;4.67;4.27;;;13.90;99.90;;;;;;4932238;28;20525;-86
2022/06/11 01:28:30;;;;;;;7.37;4.70;;;13.90;99.90;;;;;;4936813;28;20517;-86
2022/06/11 01:31:21;;;;;;;5.10;4.70;;;13.80;99.90;;;;;;4949969;28;20464;-85
2022/06/11 01:34:12;;;;;;;5.07;4.60;;;13.70;99.90;;;;;;4917764;28;20486;-85
2022/06/11 01:36:41;;;;;;;6.90;5.10;;;13.70;99.90;;;;;;4926645;28;20485;-86
2022/06/11 01:39:23;;;;;;;5.27;4.77;;;13.80;99.90;;;;;;4939721;28;20529;-85
2022/06/11 01:42:03;;;;;;;5.63;4.73;;;13.80;99.90;;;;;;4944054;28;20438;-85
2022/06/11 01:44:36;;;;;;;5.10;4.70;;;13.90;99.90;;;;;;4927436;28;20446;-86
2022/06/11 01:47:03;;;;;;;6.00;5.50;;;13.90;99.90;;;;;;4920148;28;20448;-86
2022/06/11 01:49:29;;;;;;;5.57;5.07;;;13.90;99.90;;;;;;4933422;28;20450;-86
2022/06/11 01:52:19;;;;;;;6.17;4.87;;;13.90;99.90;;;;;;4933513;28;24070;-86
2022/06/11 01:55:06;;;;;;;5.00;4.60;;;13.90;99.90;;;;;;4918488;28;20226;-86
2022/06/11 01:58:06;;;;;;;5.90;5.30;;;13.80;99.90;;;;;;4920186;28;20490;-86
2022/06/11 02:00:38;;;;;;;5.87;5.27;;;13.70;99.90;;;;;;4922973;28;20486;-86
2022/06/11 02:03:35;;;;;;;5.83;4.57;;;13.60;99.90;;;;;;4915065;28;20965;-86
2022/06/11 02:06:15;;;;;;;5.13;4.73;;;13.60;99.90;;;;;;4918412;28;20447;-86
2022/06/11 02:08:58;;;;;;;5.43;5.00;;;13.70;99.90;;;;;;4919171;28;20453;-85
2022/06/11 02:11:37;;;;;;;5.30;4.90;;;13.70;99.90;;;;;;4933205;28;20446;-86
2022/06/11 02:14:05;;;;;;;5.23;4.73;;;13.60;99.90;;;;;;4922027;28;20540;-86
2022/06/11 02:16:38;;;;;;;5.50;5.00;;;13.60;99.90;;;;;;4929310;28;20980;-86
2022/06/11 02:19:14;;;;;;;5.10;4.70;;;13.60;99.90;;;;;;4918935;28;21892;-86
2022/06/11 02:21:47;;;;;;;4.87;4.47;;;13.50;99.90;;;;;;4926391;28;20471;-85
2022/06/11 02:24:25;;;;;;;5.10;4.70;;;13.50;99.90;;;;;;4921493;28;20808;-85
2022/06/11 02:26:54;;;;;;;5.57;5.07;;;13.40;99.90;;;;;;4912841;28;21484;-85
2022/06/11 02:29:22;;;;;;;5.03;4.63;;;13.40;99.90;;;;;;4942566;28;21138;-86
2022/06/11 02:31:55;;;;;;;4.80;4.30;;;13.40;99.90;;;;;;4927965;28;20446;-85
2022/06/11 02:34:23;;;;;;;4.70;4.30;;;13.40;99.90;;;;;;4934562;28;20478;-85
2022/06/11 02:36:57;;;;;;;5.20;4.70;;;13.40;99.90;;;;;;4937069;28;20458;-85
2022/06/11 02:39:23;;;;;;;4.97;4.47;;;13.40;99.90;;;;;;4932294;28;20435;-86
2022/06/11 02:41:50;;;;;;;5.80;4.70;;;13.40;99.90;;;;;;4919418;28;20451;-86
2022/06/11 02:44:15;;;;;;;5.20;4.70;;;13.40;99.90;;;;;;4927581;28;20977;-86
2022/06/11 02:46:44;;;;;;;4.83;4.43;;;13.40;99.90;;;;;;4928792;28;20445;-86
2022/06/11 02:49:13;;;;;;;4.77;4.23;;;13.40;99.90;;;;;;4926998;28;20179;-86
2022/06/11 02:51:39;;;;;;;4.87;4.47;;;13.40;99.90;;;;;;4936134;28;20960;-85
2022/06/11 02:54:05;;;;;;;4.90;4.50;;;13.40;99.90;;;;;;4933989;28;20497;-85
2022/06/11 02:56:30;;;;;;;4.67;4.27;;;13.30;99.90;;;;;;4924549;28;20209;-85
2022/06/11 02:58:56;;;;;;;5.53;5.00;;;13.20;99.90;;;;;;4934260;28;20190;-85
2022/06/11 03:01:25;;;;;;;4.50;4.20;;;13.20;99.90;;;;;;4920459;28;20189;-85
2022/06/11 03:03:51;;;;;;;5.27;4.87;;;13.20;99.90;;;;;;4921171;28;20191;-85
2022/06/11 03:06:18;;;;;;;6.43;5.17;;;13.20;99.90;;;;;;4923346;28;20556;-85
2022/06/11 03:08:44;;;;;;;6.50;5.27;;;13.20;99.90;;;;;;4927207;28;20491;-85
2022/06/11 03:11:09;;;;;;;6.47;5.10;;;13.10;99.90;;;;;;4924686;28;20538;-85
2022/06/11 03:13:35;;;;;;;5.70;5.20;;;13.10;99.90;;;;;;4916893;28;20239;-85
2022/06/11 03:16:01;;;;;;;5.30;4.80;;;13.10;99.90;;;;;;4928453;28;20197;-85
2022/06/11 03:18:27;;;;;;;6.23;5.13;;;13.00;99.90;;;;;;4923549;28;20225;-85
2022/06/11 03:20:53;;;;;;;5.27;4.87;;;13.00;99.90;;;;;;4924445;28;20634;-86
2022/06/11 03:23:19;;;;;;;6.87;4.67;;;12.90;99.90;;;;;;4926729;28;20452;-85
2022/06/11 03:25:46;;;;;;;5.27;4.77;;;12.90;99.90;;;;;;4926988;28;20438;-85
2022/06/11 03:28:18;;;;;;;5.60;5.10;;;12.80;99.90;;;;;;4920396;28;20508;-85
2022/06/11 03:30:45;;;;;;;5.87;5.33;;;12.80;99.90;;;;;;4937372;28;20719;-86
2022/06/11 03:33:10;;;;;;;6.30;4.87;;;12.70;99.90;;;;;;4936619;28;20473;-85
2022/06/11 03:35:36;;;;;;;5.10;4.70;;;12.70;99.90;;;;;;4943879;28;20450;-85
2022/06/11 03:38:03;;;;;;;5.73;5.23;;;12.60;99.90;;;;;;4921452;28;20187;-85
2022/06/11 03:40:29;;;;;;;5.70;5.17;;;12.60;99.90;;;;;;4938940;28;20447;-85
2022/06/11 03:42:55;;;;;;;5.60;5.20;;;12.60;99.90;;;;;;4929954;28;20463;-85
2022/06/11 03:45:21;;;;;;;6.53;4.93;;;12.60;99.90;;;;;;4923281;28;20522;-86
2022/06/11 03:47:47;;;;;;;5.30;4.60;;;12.60;99.90;;;;;;4936599;28;21540;-86
2022/06/11 03:50:25;;;;;;;6.13;4.90;;;12.60;99.90;;;;;;4934174;28;21215;-86
2022/06/11 03:52:51;;;;;;;5.37;5.00;;;12.60;99.90;;;;;;4940558;28;20437;-86
2022/06/11 03:55:17;;;;;;;5.80;5.17;;;12.50;99.90;;;;;;4939886;28;20976;-86
2022/06/11 03:57:44;;;;;;;5.50;5.00;;;12.60;99.90;;;;;;4921441;28;21122;-85
2022/06/11 04:00:13;;;;;;;5.00;4.50;;;12.60;99.90;;;;;;4918380;28;20458;-85
2022/06/11 04:02:38;;;;;;;8.93;5.00;;;12.60;99.90;;;;;;4922475;28;20501;-84
2022/06/11 04:05:06;;;;;;;5.57;5.07;;;12.70;99.90;;;;;;4924030;28;20534;-85
2022/06/11 04:07:33;;;;;;;5.70;5.20;;;12.70;99.90;;;;;;4938247;28;20489;-85
2022/06/11 04:10:00;;;;;;;7.00;5.03;;;12.70;99.90;;;;;;4924647;28;20453;-85
2022/06/11 04:12:25;;;;;;;5.03;4.63;;;12.70;99.90;;;;;;4918181;28;20442;-85
2022/06/11 04:14:51;;;;;;;7.10;4.97;;;12.70;99.90;;;;;;4922740;28;20497;-85
2022/06/11 04:17:29;;;;;;;5.40;4.90;;;12.70;99.90;;;;;;4928270;28;20210;-86
2022/06/11 04:19:55;;;;;;;5.50;4.87;;;12.70;99.90;;;;;;4927999;28;20768;-85
2022/06/11 04:22:21;;;;;;;6.00;5.50;;;12.70;99.90;;;;;;4930102;28;20442;-85
2022/06/11 04:24:48;;;;;;;5.90;5.30;;;12.80;99.90;;;;;;4942082;28;20183;-86
2022/06/11 04:27:16;;;;;;;5.43;5.00;;;12.80;99.90;;;;;;4933909;28;20209;-86
2022/06/11 04:29:44;;;;;;;6.80;4.70;;;12.80;99.90;;;;;;4932335;28;20464;-85
2022/06/11 04:32:11;;;;;;;5.10;4.60;;;12.90;99.90;;;;;;4944369;28;20450;-85
2022/06/11 04:34:37;;;;;;;5.70;5.30;;;12.90;99.90;;;;;;4927816;28;20629;-86
2022/06/11 04:37:03;;;;;;;5.00;4.60;;;12.80;99.90;;;;;;4922357;28;20442;-86
2022/06/11 04:39:32;;;;;;;5.67;5.17;;;12.80;99.90;;;;;;4916090;28;20454;-86
2022/06/11 04:41:58;;;;;;;5.47;4.97;;;12.80;99.90;;;;;;4932536;28;20187;-86
2022/06/11 04:44:25;;;;;;;5.83;5.17;;;12.90;99.90;;;;;;4926236;28;20481;-85
2022/06/11 04:46:51;;;;;;;5.03;4.57;;;13.00;99.90;;;;;;4922155;28;20438;-86
2022/06/11 04:49:17;;;;;;;5.37;4.87;;;13.00;99.90;;;;;;4935873;28;20438;-86
2022/06/11 04:51:44;;;;;;;5.70;5.20;;;13.10;99.90;;;;;;4927464;28;20214;-86
2022/06/11 04:54:10;;;;;;;6.30;5.70;;;13.20;99.90;;;;;;4920992;28;20482;-86
2022/06/11 04:56:36;;;;;;;5.67;5.17;;;13.20;99.90;;;;;;4921893;28;20442;-85
2022/06/11 04:59:02;;;;;;;5.93;5.27;;;13.10;99.90;;;;;;4928097;28;20852;-85
2022/06/11 05:01:28;;;;;;;5.30;4.83;;;13.10;99.90;;;;;;4936809;28;20772;-85
2022/06/11 05:03:55;;;;;;;5.10;4.67;;;13.00;99.90;;;;;;4927036;28;20438;-86
2022/06/11 05:06:22;;;;;;;5.00;4.60;;;13.10;99.90;;;;;;4942504;28;20226;-85
2022/06/11 05:08:49;;;;;;;5.30;4.83;;;13.10;99.90;;;;;;4943746;28;20474;-87
2022/06/11 05:11:14;;;;;;;5.90;4.70;;;13.20;99.90;;;;;;4939240;28;20962;-87
2022/06/11 05:13:40;;;;;;;7.83;4.90;;;13.10;99.90;;;;;;4944372;28;20532;-85
2022/06/11 05:16:06;;;;;;;6.53;5.20;;;13.20;99.90;;;;;;4941887;28;20278;-85
2022/06/11 05:18:33;;;;;;;6.23;5.50;;;13.30;99.90;;;;;;4936190;28;20905;-85
2022/06/11 05:20:59;;;;;;;5.53;5.03;;;13.40;99.90;;;;;;4925547;28;20949;-85
2022/06/11 05:23:24;;;;;;;9.40;5.33;;;13.50;99.90;;;;;;4941715;28;20446;-85
2022/06/11 05:25:50;;;;;;;5.30;4.83;;;13.60;99.90;;;;;;4935015;28;20183;-85
2022/06/11 05:28:23;;;;;;;5.30;4.80;;;13.80;99.90;;;;;;4944360;28;20191;-85
2022/06/11 05:30:52;;;;;;;5.80;5.30;;;13.90;99.90;;;;;;4941180;28;20198;-85
2022/06/11 05:33:17;;;;;;;5.83;5.37;;;14.00;99.90;;;;;;4926593;28;21491;-85
2022/06/11 05:35:43;;;;;;;5.70;5.20;;;14.00;99.90;;;;;;4935570;28;20490;-85
2022/06/11 05:38:12;;;;;;;6.03;4.67;;;14.00;99.90;;;;;;4938241;28;20590;-85
2022/06/11 05:40:41;;;;;;;5.23;4.83;;;14.10;99.90;;;;;;4926051;28;20701;-83
2022/06/11 05:43:07;;;;;;;5.20;4.80;;;14.20;99.90;;;;;;4941167;28;20451;-84
2022/06/11 05:45:48;;;;;;;5.40;5.00;;;14.20;99.90;;;;;;4925688;28;20524;-84
2022/06/11 05:48:16;;;;;;;6.50;4.93;;;14.30;99.90;;;;;;4943006;28;20446;-84
2022/06/11 05:50:45;;;;;;;5.70;4.70;;;14.50;99.90;;;;;;4937913;28;20478;-84
2022/06/11 05:53:14;;;;;;;4.67;4.27;;;14.60;99.90;;;;;;4936352;28;20977;-85
2022/06/11 05:55:42;;;;;;;7.20;5.07;;;14.70;99.90;;;;;;4918380;28;20478;-84
2022/06/11 05:58:11;;;;;;;4.80;4.40;;;14.70;99.90;;;;;;4924634;28;20447;-84
2022/06/11 06:00:38;;;;;;;5.13;4.50;;;14.80;99.90;;;;;;4942531;28;20472;-85
2022/06/11 06:03:04;;;;;;;7.30;4.80;;;14.90;99.90;;;;;;4927452;28;20443;-85
2022/06/11 06:05:31;;;;;;;6.10;5.60;;;15.00;99.90;;;;;;4946670;28;20453;-85
2022/06/11 06:07:57;;;;;;;4.93;4.53;;;15.20;99.90;;;;;;4924184;28;20517;-84
2022/06/11 06:10:23;;;;;;;5.70;4.03;;;15.30;99.90;;;;;;4919661;28;20875;-84
2022/06/11 06:12:50;;;;;;;5.40;4.90;;;15.40;99.90;;;;;;4918585;28;20526;-84
2022/06/11 06:15:27;;;;;;;4.17;3.87;;;15.50;99.90;;;;;;4926120;28;20493;-85
2022/06/11 06:17:53;;;;;;;4.83;4.40;;;15.70;99.90;;;;;;4943284;28;20470;-85
2022/06/11 06:20:22;;;;;;;5.40;3.87;;;15.90;99.90;;;;;;4922538;28;20541;-84
2022/06/11 06:22:47;;;;;;;5.30;4.00;;;16.10;99.90;;;;;;4921363;28;20254;-85
2022/06/11 06:25:21;;;;;;;4.80;4.40;;;16.30;99.90;;;;;;4920946;28;21063;-85
2022/06/11 06:27:47;;;;;;;4.40;4.00;;;16.40;99.90;;;;;;4927514;28;20218;-85
2022/06/11 06:30:13;;;;;;;3.93;3.63;;;16.60;99.90;;;;;;4917244;28;20445;-84
2022/06/11 06:32:39;;;;;;;4.10;3.70;;;16.80;99.90;;;;;;4923025;28;20597;-84
2022/06/11 06:35:05;;;;;;;4.47;3.80;;;16.80;99.90;;;;;;4921037;28;20488;-85
2022/06/11 06:37:33;;;;;;;4.50;4.20;;;17.00;99.90;;;;;;4910819;28;20190;-86
2022/06/11 06:40:08;;;;;;;3.73;3.47;;;17.00;99.90;;;;;;4935864;28;20446;-93
2022/06/11 06:42:34;;;;;;;4.63;3.90;;;17.00;99.90;;;;;;4941836;28;20541;-96
2022/06/11 06:45:00;;;;;;;8.80;8.10;;;17.10;99.90;;;;;;4931644;28;20836;-86
2022/06/11 06:47:25;;;;;;;6.33;4.70;;;17.10;99.90;;;;;;4922641;28;20585;-86
2022/06/11 06:49:51;;;;;;;3.20;2.90;;;17.10;99.90;;;;;;4918650;28;20213;-87
2022/06/11 06:52:16;;;;;;;4.47;4.13;;;17.20;99.90;;;;;;4917363;28;20183;-87
2022/06/11 06:54:42;;;;;;;2.97;2.70;;;17.20;99.90;;;;;;4931282;28;21696;-85
2022/06/11 06:57:08;;;;;;;4.17;3.87;;;17.30;99.90;;;;;;4940978;28;20625;-86
2022/06/11 06:59:33;;;;;;;3.30;3.10;;;17.30;99.90;;;;;;4928891;28;20230;-87
2022/06/11 07:01:59;;;;;;;4.10;3.63;;;17.40;99.90;;;;;;4947009;28;20213;-86
2022/06/11 07:04:24;;;;;;;3.97;3.63;;;17.60;99.90;;;;;;4947008;28;20177;-87
2022/06/11 07:06:50;;;;;;;4.03;3.60;;;17.70;99.90;;;;;;4926480;28;20234;-87
2022/06/11 07:09:15;;;;;;;4.00;3.70;;;17.80;99.90;;;;;;4918654;28;20242;-86
2022/06/11 07:11:41;;;;;;;5.00;3.50;;;17.90;99.90;;;;;;4931502;28;20194;-87
2022/06/11 07:14:07;;;;;;;3.73;3.40;;;18.10;99.90;;;;;;4937428;28;20221;-87
2022/06/11 07:16:41;;;;;;;4.10;3.80;;;18.20;99.90;;;;;;4937261;28;20225;-87
2022/06/11 07:19:13;;;;;;;4.20;3.80;;;18.20;99.90;;;;;;4935557;28;20284;-86
2022/06/11 07:21:42;;;;;;;3.97;3.47;;;18.30;99.90;;;;;;4934273;28;20596;-86
2022/06/11 07:24:15;;;;;;;4.40;4.00;;;18.30;99.90;;;;;;4953344;28;20450;-87
2022/06/11 07:26:49;;;;;;;4.07;3.77;;;18.30;99.90;;;;;;4942972;28;20480;-88
2022/06/11 07:29:23;;;;;;;3.93;3.53;;;18.40;99.90;;;;;;4940854;28;20446;-87
2022/06/11 07:31:52;;;;;;;3.57;3.33;;;18.70;99.90;;;;;;4943597;28;20446;-87
2022/06/11 07:34:19;;;;;;;3.50;3.27;;;18.90;99.90;;;;;;4951062;28;21385;-87
2022/06/11 07:36:45;;;;;;;4.07;3.57;;;19.10;99.90;;;;;;4933558;28;20441;-87
2022/06/11 07:39:11;;;;;;;3.80;3.43;;;19.30;99.90;;;;;;4926348;28;20452;-87
2022/06/11 07:41:37;;;;;;;3.73;3.40;;;19.40;99.90;;;;;;4962158;28;20434;-87
2022/06/11 07:44:03;;;;;;;3.57;3.27;;;19.60;99.90;;;;;;4934167;28;21061;-87
2022/06/11 07:46:28;;;;;;;4.00;3.50;;;19.80;99.90;;;;;;4939778;28;20182;-87
2022/06/11 07:48:54;;;;;;;3.00;2.70;;;19.80;99.90;;;;;;4937927;28;20798;-87
2022/06/11 07:51:20;;;;;;;3.37;3.17;;;19.90;99.90;;;;;;4951551;28;20252;-86
2022/06/11 07:53:47;;;;;;;4.23;3.20;;;20.00;99.90;;;;;;4958276;28;20218;-87
2022/06/11 07:56:14;;;;;;;3.43;3.13;;;20.10;99.90;;;;;;4939647;28;20178;-87
2022/06/11 07:58:40;;;;;;;3.50;3.20;;;20.20;99.90;;;;;;4927961;28;20453;-87
2022/06/11 08:01:15;;;;;;;3.27;3.00;;;20.30;99.90;;;;;;4936010;28;20469;-86
2022/06/11 08:03:40;;;;;;;3.67;3.37;;;20.50;99.90;;;;;;4936588;28;20655;-87
2022/06/11 08:06:07;;;;;;;4.93;3.07;;;20.60;99.90;;;;;;4938715;28;20500;-87
2022/06/11 08:08:33;;;;;;;3.60;3.30;;;20.80;99.90;;;;;;4935672;28;20191;-87
2022/06/11 08:11:00;;;;;;;4.40;2.97;;;20.90;99.90;;;;;;4942190;28;20441;-87
2022/06/11 08:13:26;;;;;;;3.37;3.13;;;20.90;99.90;;;;;;4938962;28;20508;-88
2022/06/11 08:15:53;;;;;;;3.43;3.20;;;21.00;99.90;;;;;;4957295;28;20556;-87
2022/06/11 08:18:20;;;;;;;2.97;2.77;;;21.10;99.90;;;;;;4940281;28;20229;-87
2022/06/11 08:20:46;;;;;;;4.03;3.10;;;21.20;99.90;;;;;;4937356;28;20845;-87
2022/06/11 08:23:13;;;;;;;4.27;2.80;;;21.30;99.90;;;;;;4955312;28;21274;-87
2022/06/11 08:25:39;;;;;;;3.50;3.20;;;21.50;99.40;;;;;;4938622;28;21117;-87
2022/06/11 08:28:10;;;;;;;3.13;2.80;;;21.60;97.80;;;;;;4935657;28;22376;-86
2022/06/11 08:30:36;;;;;;;3.13;2.93;;;21.50;97.60;;;;;;4936007;28;20536;-86
2022/06/11 08:33:02;;;;;;;3.50;2.90;;;21.50;99.20;;;;;;4935023;28;20445;-87
2022/06/11 08:35:30;;;;;;;2.50;2.30;;;21.60;98.00;;;;;;4941271;28;20196;-86
2022/06/11 08:37:58;;;;;;;2.80;2.60;;;21.60;98.40;;;;;;4931621;28;20201;-87
2022/06/11 08:40:51;;;;;;;3.80;2.90;;;21.90;95.80;;;;;;4934458;28;20944;-86
2022/06/11 08:43:34;;;;;;;3.10;2.90;;;22.10;96.10;;;;;;4944911;28;20189;-87
2022/06/11 08:46:07;;;;;;;3.93;2.87;;;22.00;97.10;;;;;;4940492;28;20463;-87
2022/06/11 08:48:42;;;;;;;4.10;2.87;;;22.20;94.70;;;;;;4954896;28;20437;-87
2022/06/11 08:51:20;;;;;;;2.70;2.50;;;21.90;94.60;;;;;;4951145;28;20442;-88
2022/06/11 08:53:48;;;;;;;2.00;1.90;;;21.60;93.30;;;;;;4936435;28;20627;-87
2022/06/11 08:56:46;;;;;;;2.50;2.30;;;21.70;94.30;;;;;;4937546;28;20437;-87
2022/06/11 08:59:23;;;;;;;4.17;2.30;;;22.00;94.40;;;;;;4928985;28;20453;-87
2022/06/11 09:02:13;;;;;;;2.60;2.40;;;22.40;93.50;;;;;;4949822;28;20592;-87
2022/06/11 09:05:22;;;;;;;3.23;2.80;;;22.70;93.70;;;;;;4939998;28;20557;-88
2022/06/11 09:07:59;;;;;;;2.47;2.27;;;22.90;92.30;;;;;;4938223;28;22104;-87
2022/06/11 09:10:54;;;;;;;3.63;2.27;;;23.00;91.40;;;;;;4951847;28;20943;-87
2022/06/11 09:13:59;;;;;;;2.23;2.13;;;23.20;92.20;;;;;;4932544;28;21126;-88
2022/06/11 09:16:55;;;;;;;2.40;2.20;;;23.20;91.00;;;;;;4935535;28;20457;-87
2022/06/11 09:19:45;;;;;;;3.07;2.63;;;23.50;92.40;;;;;;4956582;28;20450;-88
2022/06/11 09:22:32;;;;;;;3.00;2.10;;;23.70;90.80;;;;;;4958379;28;20485;-87
2022/06/11 09:25:51;;;;;;;1.67;1.57;;;23.70;88.50;;;;;;4954653;28;20480;-87
2022/06/11 09:28:40;;;;;;;2.20;2.00;;;23.80;85.00;;;;;;4908912;28;20453;-87
2022/06/11 09:31:35;;;;;;;2.60;2.40;;;23.80;87.00;;;;;;4947553;28;20434;-88
2022/06/11 09:34:10;;;;;;;4.03;2.37;;;23.90;88.50;;;;;;4947205;28;21205;-87
2022/06/11 09:36:38;;;;;;;6.60;2.50;;;24.00;86.70;;;;;;4941750;28;20437;-87
2022/06/11 09:39:35;;;;;;;3.33;2.30;;;24.00;90.10;;;;;;4947762;28;20457;-88
2022/06/11 09:42:11;;;;;;;5.60;2.60;;;24.10;86.20;;;;;;4934464;28;20449;-87
2022/06/11 09:44:46;;;;;;;3.43;3.13;;;24.10;87.60;;;;;;4936160;28;20485;-87
2022/06/11 09:47:14;;;;;;;4.33;2.57;;;23.60;88.90;;;;;;4950866;28;20437;-87
2022/06/11 09:49:43;;;;;;;2.47;1.93;;;23.40;87.80;;;;;;4949448;28;20960;-87
2022/06/11 09:52:36;;;;;;;2.27;1.93;;;23.30;88.40;;;;;;4957050;28;20487;-87
2022/06/11 09:55:21;;;;;;;2.70;2.20;;;23.60;88.10;;;;;;4942336;28;20477;-87
2022/06/11 09:58:06;;;;;;;3.20;2.30;;;23.80;87.60;;;;;;4952654;28;20456;-86
2022/06/11 10:00:44;;;;;;;2.30;2.10;;;24.40;84.10;;;;;;4932895;28;20547;-86
2022/06/11 10:03:40;;;;;;;2.13;1.93;;;24.80;84.70;;;;;;4935367;28;20449;-87
2022/06/11 10:06:12;;;;;;;2.20;2.00;;;25.10;89.80;;;;;;4938938;28;20971;-86
2022/06/11 10:08:58;;;;;;;2.77;2.43;;;25.40;77.50;;;;;;4956054;28;20453;-86
2022/06/11 10:11:48;;;;;;;2.47;2.27;;;25.20;76.00;;;;;;4933571;28;20536;-87
2022/06/11 10:14:47;;;;;;;2.10;1.90;;;25.30;77.00;;;;;;4921222;28;20481;-87
2022/06/11 10:17:22;;;;;;;3.10;2.33;;;25.00;77.70;;;;;;4932339;28;20509;-87
2022/06/11 10:20:12;;;;;;;2.23;2.13;;;25.20;84.10;;;;;;4931469;28;20460;-88
2022/06/11 10:23:25;;;;;;;2.80;2.60;;;25.40;79.10;;;;;;4928395;28;20585;-85
2022/06/11 10:26:00;;;;;;;29.40;27.03;;;25.70;79.00;;;;;;4928518;28;20692;-87
2022/06/11 10:28:32;;;;;;;14.33;13.23;;;25.50;74.70;;;;;;4928836;28;20449;-82
2022/06/11 10:31:03;;;;;;;2.93;2.73;;;25.50;76.60;;;;;;4951993;28;20453;-86
2022/06/11 10:33:47;;;;;;;6.83;6.33;;;25.00;75.30;;;;;;4962480;28;20477;-87
2022/06/11 10:36:25;;;;;;;2.67;2.43;;;25.20;77.50;;;;;;4935639;28;20438;-87
2022/06/11 10:39:19;;;;;;;4.93;4.53;;;25.30;77.50;;;;;;4952896;28;20481;-89
2022/06/11 10:42:00;;;;;;;5.83;2.00;;;25.30;74.90;;;;;;4967376;28;20561;-87
2022/06/11 10:44:51;;;;;;;2.30;2.10;;;24.90;75.40;;;;;;4955847;28;20442;-87
2022/06/11 10:47:22;;;;;;;2.50;2.10;;;25.10;78.10;;;;;;4934447;28;20446;-88
2022/06/11 10:49:57;;;;;;;4.63;2.57;;;25.50;78.80;;;;;;4937882;28;20478;-86
2022/06/11 10:53:17;;;;;;;2.33;2.20;;;25.80;75.40;;;;;;4929207;28;20539;-86
2022/06/11 10:55:58;;;;;;;2.00;1.90;;;25.60;72.70;;;;;;4950162;28;20551;-88
2022/06/11 10:58:37;;;;;;;4.27;2.73;;;25.30;80.50;;;;;;4933969;28;20519;-86
2022/06/11 11:01:23;;;;;;;3.77;2.40;;;25.60;72.00;;;;;;4939342;28;20446;-90
2022/06/11 11:03:57;;;;;;;3.27;2.57;;;25.90;72.70;;;;;;4936338;28;20573;-86
2022/06/11 11:06:28;;;;;;;4.10;2.50;;;26.30;71.30;;;;;;4936063;28;20481;-85
2022/06/11 11:08:58;;;;;;;5.50;2.40;;;26.00;71.20;;;;;;4933356;28;20461;-86
2022/06/11 11:11:26;;;;;;;3.50;2.33;;;26.10;71.40;;;;;;4936104;28;20786;-86
2022/06/11 11:14:07;;;;;;;2.40;2.30;;;26.30;71.60;;;;;;4938955;28;21367;-86
2022/06/11 11:16:39;;;;;;;2.50;2.00;;;25.60;70.70;;;;;;4934264;28;20885;-87
2022/06/11 11:19:24;;;;;;;2.30;2.17;;;25.20;73.50;;;;;;4937653;28;20466;-87
2022/06/11 11:22:03;;;;;;;2.20;2.00;;;25.50;75.50;;;;;;4930076;28;20450;-87
2022/06/11 11:24:41;;;;;;;2.80;2.00;;;26.10;72.20;;;;;;4953037;28;20499;-87
2022/06/11 11:27:14;;;;;;;2.80;2.60;;;26.30;71.70;;;;;;4954459;28;20488;-87
2022/06/11 11:29:51;;;;;;;2.37;2.17;;;26.60;69.00;;;;;;4935857;28;20453;-88
2022/06/11 11:32:38;;;;;;;1.87;1.77;;;27.00;70.40;;;;;;4952944;28;20446;-86
2022/06/11 11:35:27;;;;;;;2.63;2.30;;;26.70;70.00;;;;;;4951166;28;20497;-87
2022/06/11 11:38:01;;;;;;;2.60;2.40;;;26.70;68.30;;;;;;4939532;28;20457;-86
2022/06/11 11:40:50;;;;;;;3.50;2.10;;;26.90;69.80;;;;;;4945021;28;20807;-87
2022/06/11 11:43:17;;;;;;;2.97;2.70;;;26.80;68.10;;;;;;4959159;28;21006;-87
2022/06/11 11:46:09;;;;;;;2.10;2.00;;;26.80;67.00;;;;;;4943753;28;20472;-86
2022/06/11 11:48:43;;;;;;;4.10;2.17;;;26.50;69.40;;;;;;4955640;28;20560;-87
2022/06/11 11:51:18;;;;;;;2.37;2.17;;;26.60;68.30;;;;;;4955165;28;20464;-87
2022/06/11 11:53:58;;;;;;;2.40;2.20;;;27.10;66.10;;;;;;4937728;28;20995;-87
2022/06/11 11:56:36;;;;;;;2.80;2.00;;;27.00;71.10;;;;;;4961760;28;20532;-87
2022/06/11 11:59:08;;;;;;;2.57;2.37;;;27.20;67.20;;;;;;4947339;28;20445;-87
2022/06/11 12:01:34;;;;;;;3.00;2.20;;;27.20;70.40;;;;;;4974093;28;20467;-87
2022/06/11 12:04:19;;;;;;;2.27;2.17;;;27.50;69.00;;;;;;4941343;28;20963;-87
2022/06/11 12:06:52;;;;;;;2.53;2.37;;;27.50;75.60;;;;;;4954295;28;20565;-87
2022/06/11 12:09:36;;;;;;;2.30;2.20;;;27.50;73.80;;;;;;4940612;28;20449;-87
2022/06/11 12:12:11;;;;;;;2.93;2.30;;;27.80;66.70;;;;;;4942293;28;20456;-87
2022/06/11 12:14:40;;;;;;;2.10;2.00;;;27.90;68.40;;;;;;4939632;28;20481;-87
2022/06/11 12:17:44;;;;;;;2.17;2.07;;;27.70;67.50;;;;;;4938150;28;20430;-87
2022/06/11 12:20:17;;;;;;;4.03;2.20;;;27.90;72.20;;;;;;4937559;28;20508;-87
2022/06/11 12:22:52;;;;;;;2.17;2.07;;;27.80;65.20;;;;;;4929878;28;21063;-87
2022/06/11 12:25:53;;;;;;;3.67;2.20;;;27.70;64.70;;;;;;4953171;28;20889;-87
2022/06/11 12:28:30;;;;;;;2.47;2.23;;;27.80;67.90;;;;;;4927298;28;20453;-87
2022/06/11 12:30:56;;;;;;;2.00;1.90;;;27.80;63.50;;;;;;4938507;28;20456;-87
2022/06/11 12:33:24;;;;;;;2.90;2.70;;;27.20;64.40;;;;;;4939964;28;20441;-87
2022/06/11 12:35:58;;;;;;;2.30;2.20;;;27.00;68.20;;;;;;4936599;28;20573;-87
2022/06/11 12:38:35;;;;;;;2.30;2.10;;;26.90;66.70;;;;;;4953860;28;20491;-87
2022/06/11 12:41:21;;;;;;;2.47;2.20;;;26.90;67.60;;;;;;4944701;28;20532;-87
2022/06/11 12:44:21;;;;;;;2.43;2.20;;;27.40;68.00;;;;;;4947674;28;20445;-87
2022/06/11 12:47:23;;;;;;;2.50;2.30;;;27.80;64.70;;;;;;4959612;28;20453;-87
2022/06/11 12:50:10;;;;;;;4.50;2.40;;;28.40;65.20;;;;;;4928714;28;20441;-87
2022/06/11 12:53:01;;;;;;;5.10;2.80;;;28.50;60.00;;;;;;4960286;28;23295;-88
2022/06/11 12:56:04;;;;;;;3.27;2.20;;;27.90;63.70;;;;;;4944268;28;20591;-87
2022/06/11 12:58:53;;;;;;;4.77;2.70;;;27.10;64.90;;;;;;4962006;28;20456;-87
2022/06/11 13:01:37;;;;;;;2.20;2.00;;;26.80;64.30;;;;;;4959662;28;20468;-87
2022/06/11 13:04:37;;;;;;;3.20;2.80;;;27.20;65.20;;;;;;4959259;28;21768;-86
2022/06/11 13:07:28;;;;;;;2.57;2.37;;;27.00;65.90;;;;;;4957311;28;20999;-87
2022/06/11 13:10:31;;;;;;;2.53;2.43;;;27.10;67.70;;;;;;4961980;28;20442;-87
2022/06/11 13:13:11;;;;;;;3.50;2.40;;;28.00;69.00;;;;;;4969492;28;20464;-87
2022/06/11 13:16:04;;;;;;;2.43;2.20;;;28.80;64.20;;;;;;4957077;28;20998;-87
2022/06/11 13:18:57;;;;;;;3.43;2.50;;;28.20;63.40;;;;;;4945449;28;20458;-87
2022/06/11 13:21:48;;;;;;;2.27;2.17;;;28.60;67.90;;;;;;4954146;28;20484;-87